sensor_id;sensor_type;location;lat;lon;timestamp;pressure;altitude;pressure_sealevel;temperature;humidity
79663;BME280;69130;48.724;8.982;2023-05-20T00:00:05;96613.13;;;9.57;91.32
79663;BME280;69130;48.724;8.982;2023-05-20T00:02:30;96609.19;;;9.64;90.71
79663;BME280;69130;48.724;8.982;2023-05-20T00:04:56;96609.84;;;9.67;90.41
79663;BME280;69130;48.724;8.982;2023-05-20T00:07:21;96601.44;;;9.75;90.14
79663;BME280;69130;48.724;8.982;2023-05-20T00:09:47;96604.06;;;9.75;89.54
79663;BME280;69130;48.724;8.982;2023-05-20T00:12:12;96600.69;;;9.73;89.71
79663;BME280;69130;48.724;8.982;2023-05-20T00:14:37;96596.34;;;9.72;90.22
79663;BME280;69130;48.724;8.982;2023-05-20T00:17:03;96602.84;;;9.81;90.08
79663;BME280;69130;48.724;8.982;2023-05-20T00:19:28;96603.03;;;9.78;89.33
79663;BME280;69130;48.724;8.982;2023-05-20T00:21:54;96596.22;;;9.88;89.50
79663;BME280;69130;48.724;8.982;2023-05-20T00:24:21;96598.13;;;9.86;89.17
79663;BME280;69130;48.724;8.982;2023-05-20T00:26:46;96589.72;;;9.79;89.51
79663;BME280;69130;48.724;8.982;2023-05-20T00:29:12;96590.59;;;9.80;90.25
79663;BME280;69130;48.724;8.982;2023-05-20T00:31:37;96590.38;;;9.83;89.78
79663;BME280;69130;48.724;8.982;2023-05-20T00:34:02;96589.56;;;9.82;90.31
79663;BME280;69130;48.724;8.982;2023-05-20T00:36:28;96594.25;;;9.77;90.50
79663;BME280;69130;48.724;8.982;2023-05-20T00:38:53;96597.66;;;9.79;90.96
79663;BME280;69130;48.724;8.982;2023-05-20T00:41:19;96591.06;;;9.86;89.96
79663;BME280;69130;48.724;8.982;2023-05-20T00:43:45;96592.63;;;9.89;89.66
79663;BME280;69130;48.724;8.982;2023-05-20T00:46:11;96602.81;;;9.95;89.98
79663;BME280;69130;48.724;8.982;2023-05-20T00:48:42;96590.47;;;9.95;90.52
79663;BME280;69130;48.724;8.982;2023-05-20T00:51:09;96592.81;;;10.00;90.54
79663;BME280;69130;48.724;8.982;2023-05-20T00:53:35;96591.09;;;9.99;90.33
79663;BME280;69130;48.724;8.982;2023-05-20T00:56:02;96598.06;;;10.28;89.45
79663;BME280;69130;48.724;8.982;2023-05-20T00:58:28;96589.16;;;10.29;88.43
79663;BME280;69130;48.724;8.982;2023-05-20T01:00:54;96592.22;;;10.23;88.21
79663;BME280;69130;48.724;8.982;2023-05-20T01:03:19;96590.53;;;10.22;89.28
79663;BME280;69130;48.724;8.982;2023-05-20T01:05:45;96583.75;;;10.18;89.34
79663;BME280;69130;48.724;8.982;2023-05-20T01:08:10;96585.09;;;10.37;88.65
79663;BME280;69130;48.724;8.982;2023-05-20T01:10:38;96583.13;;;10.27;88.98
79663;BME280;69130;48.724;8.982;2023-05-20T01:13:09;96586.94;;;10.23;89.00
79663;BME280;69130;48.724;8.982;2023-05-20T01:15:36;96579.00;;;10.23;89.28
79663;BME280;69130;48.724;8.982;2023-05-20T01:18:07;96579.44;;;10.29;88.44
79663;BME280;69130;48.724;8.982;2023-05-20T01:20:35;96571.66;;;10.40;89.69
79663;BME280;69130;48.724;8.982;2023-05-20T01:23:01;96571.88;;;10.50;88.07
79663;BME280;69130;48.724;8.982;2023-05-20T01:25:27;96577.69;;;10.42;88.63
79663;BME280;69130;48.724;8.982;2023-05-20T01:27:54;96573.84;;;10.34;89.13
79663;BME280;69130;48.724;8.982;2023-05-20T01:30:23;96570.78;;;10.40;89.47
79663;BME280;69130;48.724;8.982;2023-05-20T01:33:04;96566.56;;;10.37;88.88
79663;BME280;69130;48.724;8.982;2023-05-20T01:35:32;96574.09;;;10.43;89.22
79663;BME280;69130;48.724;8.982;2023-05-20T01:37:59;96571.81;;;10.51;87.97
79663;BME280;69130;48.724;8.982;2023-05-20T01:40:26;96563.19;;;10.35;89.26
79663;BME280;69130;48.724;8.982;2023-05-20T01:42:52;96560.13;;;10.41;89.37
79663;BME280;69130;48.724;8.982;2023-05-20T01:45:19;96567.34;;;10.52;88.90
79663;BME280;69130;48.724;8.982;2023-05-20T01:47:45;96567.38;;;10.65;88.23
79663;BME280;69130;48.724;8.982;2023-05-20T01:50:10;96565.31;;;10.43;88.72
79663;BME280;69130;48.724;8.982;2023-05-20T01:52:36;96557.16;;;10.33;89.29
79663;BME280;69130;48.724;8.982;2023-05-20T01:55:01;96567.50;;;10.36;89.49
79663;BME280;69130;48.724;8.982;2023-05-20T01:57:27;96560.19;;;10.27;89.70
79663;BME280;69130;48.724;8.982;2023-05-20T01:59:52;96560.22;;;10.40;88.80
79663;BME280;69130;48.724;8.982;2023-05-20T02:02:17;96557.50;;;10.41;89.41
79663;BME280;69130;48.724;8.982;2023-05-20T02:04:49;96553.44;;;10.36;89.01
79663;BME280;69130;48.724;8.982;2023-05-20T02:07:16;96553.28;;;10.51;89.28
79663;BME280;69130;48.724;8.982;2023-05-20T02:09:43;96551.94;;;10.32;88.63
79663;BME280;69130;48.724;8.982;2023-05-20T02:12:08;96553.13;;;10.40;89.28
79663;BME280;69130;48.724;8.982;2023-05-20T02:14:34;96548.06;;;10.37;89.37
79663;BME280;69130;48.724;8.982;2023-05-20T02:16:59;96547.38;;;10.34;88.98
79663;BME280;69130;48.724;8.982;2023-05-20T02:19:24;96548.66;;;10.28;89.58
79663;BME280;69130;48.724;8.982;2023-05-20T02:21:50;96554.44;;;10.21;89.58
79663;BME280;69130;48.724;8.982;2023-05-20T02:24:15;96546.50;;;10.21;90.11
79663;BME280;69130;48.724;8.982;2023-05-20T02:26:41;96556.63;;;10.14;90.55
79663;BME280;69130;48.724;8.982;2023-05-20T02:29:08;96554.34;;;10.08;90.25
79663;BME280;69130;48.724;8.982;2023-05-20T02:31:33;96555.25;;;9.95;91.31
79663;BME280;69130;48.724;8.982;2023-05-20T02:33:59;96553.84;;;9.89;91.75
79663;BME280;69130;48.724;8.982;2023-05-20T02:36:25;96550.41;;;10.01;91.61
79663;BME280;69130;48.724;8.982;2023-05-20T02:38:52;96554.41;;;9.94;91.58
79663;BME280;69130;48.724;8.982;2023-05-20T02:41:20;96548.00;;;9.98;91.74
79663;BME280;69130;48.724;8.982;2023-05-20T02:43:46;96547.00;;;10.13;90.91
79663;BME280;69130;48.724;8.982;2023-05-20T02:46:11;96550.88;;;10.08;90.85
79663;BME280;69130;48.724;8.982;2023-05-20T02:48:37;96552.41;;;10.12;91.09
79663;BME280;69130;48.724;8.982;2023-05-20T02:51:02;96550.03;;;10.07;91.23
79663;BME280;69130;48.724;8.982;2023-05-20T02:53:27;96555.31;;;10.07;91.73
79663;BME280;69130;48.724;8.982;2023-05-20T02:55:53;96555.66;;;10.29;91.33
79663;BME280;69130;48.724;8.982;2023-05-20T02:58:18;96557.19;;;10.19;90.68
79663;BME280;69130;48.724;8.982;2023-05-20T03:00:53;96555.44;;;10.32;91.32
79663;BME280;69130;48.724;8.982;2023-05-20T03:03:19;96553.25;;;10.39;90.82
79663;BME280;69130;48.724;8.982;2023-05-20T03:05:44;96555.38;;;10.46;90.70
79663;BME280;69130;48.724;8.982;2023-05-20T03:08:11;96549.84;;;10.37;89.77
79663;BME280;69130;48.724;8.982;2023-05-20T03:10:37;96551.94;;;10.32;90.65
79663;BME280;69130;48.724;8.982;2023-05-20T03:13:05;96555.03;;;10.38;90.56
79663;BME280;69130;48.724;8.982;2023-05-20T03:15:39;96548.88;;;10.38;90.06
79663;BME280;69130;48.724;8.982;2023-05-20T03:18:05;96547.66;;;10.43;90.40
79663;BME280;69130;48.724;8.982;2023-05-20T03:20:32;96547.66;;;10.43;90.62
79663;BME280;69130;48.724;8.982;2023-05-20T03:22:58;96551.22;;;10.42;90.37
79663;BME280;69130;48.724;8.982;2023-05-20T03:25:23;96546.50;;;10.47;89.75
79663;BME280;69130;48.724;8.982;2023-05-20T03:27:50;96547.84;;;10.40;90.25
79663;BME280;69130;48.724;8.982;2023-05-20T03:30:15;96544.91;;;10.45;90.44
79663;BME280;69130;48.724;8.982;2023-05-20T03:32:41;96539.31;;;10.49;90.52
79663;BME280;69130;48.724;8.982;2023-05-20T03:35:07;96545.41;;;10.37;90.70
79663;BME280;69130;48.724;8.982;2023-05-20T03:37:33;96545.59;;;10.34;91.08
79663;BME280;69130;48.724;8.982;2023-05-20T03:39:58;96554.16;;;10.38;90.87
79663;BME280;69130;48.724;8.982;2023-05-20T03:42:24;96551.22;;;10.30;91.18
79663;BME280;69130;48.724;8.982;2023-05-20T03:44:49;96553.41;;;10.23;91.26
79663;BME280;69130;48.724;8.982;2023-05-20T03:47:14;96554.69;;;10.30;92.12
79663;BME280;69130;48.724;8.982;2023-05-20T03:49:40;96561.06;;;10.40;91.26
79663;BME280;69130;48.724;8.982;2023-05-20T03:52:06;96558.31;;;10.42;91.29
79663;BME280;69130;48.724;8.982;2023-05-20T03:54:31;96555.25;;;10.48;91.19
79663;BME280;69130;48.724;8.982;2023-05-20T03:56:56;96561.19;;;10.39;90.88
79663;BME280;69130;48.724;8.982;2023-05-20T03:59:22;96565.59;;;10.38;90.77
79663;BME280;69130;48.724;8.982;2023-05-20T04:01:47;96554.69;;;10.30;91.09
79663;BME280;69130;48.724;8.982;2023-05-20T04:04:13;96552.09;;;10.43;91.13
79663;BME280;69130;48.724;8.982;2023-05-20T04:06:38;96548.75;;;10.53;91.13
79663;BME280;69130;48.724;8.982;2023-05-20T04:09:04;96552.44;;;10.51;90.51
79663;BME280;69130;48.724;8.982;2023-05-20T04:11:30;96549.69;;;10.52;90.56
79663;BME280;69130;48.724;8.982;2023-05-20T04:13:55;96549.69;;;10.52;90.61
79663;BME280;69130;48.724;8.982;2023-05-20T04:16:20;96544.19;;;10.56;90.58
79663;BME280;69130;48.724;8.982;2023-05-20T04:18:46;96551.28;;;10.55;90.95
79663;BME280;69130;48.724;8.982;2023-05-20T04:21:12;96556.59;;;10.68;90.41
79663;BME280;69130;48.724;8.982;2023-05-20T04:23:38;96545.06;;;10.69;89.97
79663;BME280;69130;48.724;8.982;2023-05-20T04:26:03;96546.56;;;10.73;90.66
79663;BME280;69130;48.724;8.982;2023-05-20T04:28:28;96546.34;;;10.76;89.88
79663;BME280;69130;48.724;8.982;2023-05-20T04:30:59;96552.06;;;10.82;89.77
79663;BME280;69130;48.724;8.982;2023-05-20T04:33:26;96551.03;;;10.85;89.65
79663;BME280;69130;48.724;8.982;2023-05-20T04:35:52;96549.31;;;10.84;89.92
79663;BME280;69130;48.724;8.982;2023-05-20T04:38:17;96539.28;;;10.89;90.45
79663;BME280;69130;48.724;8.982;2023-05-20T04:40:43;96538.72;;;10.84;89.99
79663;BME280;69130;48.724;8.982;2023-05-20T04:43:08;96532.91;;;10.91;90.11
79663;BME280;69130;48.724;8.982;2023-05-20T04:45:35;96530.91;;;10.95;89.69
79663;BME280;69130;48.724;8.982;2023-05-20T04:48:00;96543.63;;;11.02;89.52
79663;BME280;69130;48.724;8.982;2023-05-20T04:50:26;96537.88;;;11.21;89.25
79663;BME280;69130;48.724;8.982;2023-05-20T04:52:52;96533.66;;;11.18;88.75
79663;BME280;69130;48.724;8.982;2023-05-20T04:55:17;96531.41;;;11.25;89.21
79663;BME280;69130;48.724;8.982;2023-05-20T04:57:44;96540.34;;;11.24;88.67
79663;BME280;69130;48.724;8.982;2023-05-20T05:00:10;96538.84;;;11.32;89.04
79663;BME280;69130;48.724;8.982;2023-05-20T05:02:37;96543.38;;;11.43;88.32
79663;BME280;69130;48.724;8.982;2023-05-20T05:05:02;96549.00;;;11.51;88.21
79663;BME280;69130;48.724;8.982;2023-05-20T05:07:28;96546.16;;;11.54;87.62
79663;BME280;69130;48.724;8.982;2023-05-20T05:09:53;96548.78;;;11.67;87.82
79663;BME280;69130;48.724;8.982;2023-05-20T05:12:18;96540.06;;;11.65;87.97
79663;BME280;69130;48.724;8.982;2023-05-20T05:14:44;96539.97;;;11.79;88.02
79663;BME280;69130;48.724;8.982;2023-05-20T05:17:09;96540.25;;;11.87;86.70
79663;BME280;69130;48.724;8.982;2023-05-20T05:19:35;96526.00;;;12.00;86.01
79663;BME280;69130;48.724;8.982;2023-05-20T05:22:00;96531.09;;;12.03;86.43
79663;BME280;69130;48.724;8.982;2023-05-20T05:24:25;96523.41;;;12.11;85.64
79663;BME280;69130;48.724;8.982;2023-05-20T05:26:54;96514.53;;;12.23;85.94
79663;BME280;69130;48.724;8.982;2023-05-20T05:29:20;96508.19;;;12.26;84.29
79663;BME280;69130;48.724;8.982;2023-05-20T05:31:45;96515.22;;;12.38;84.84
79663;BME280;69130;48.724;8.982;2023-05-20T05:34:10;96518.38;;;12.43;84.43
79663;BME280;69130;48.724;8.982;2023-05-20T05:36:38;96525.31;;;12.57;83.91
79663;BME280;69130;48.724;8.982;2023-05-20T05:39:03;96514.94;;;12.54;84.68
79663;BME280;69130;48.724;8.982;2023-05-20T05:41:29;96506.44;;;12.72;84.03
79663;BME280;69130;48.724;8.982;2023-05-20T05:43:54;96500.53;;;12.80;82.57
79663;BME280;69130;48.724;8.982;2023-05-20T05:46:19;96494.41;;;13.01;82.19
79663;BME280;69130;48.724;8.982;2023-05-20T05:48:45;96498.09;;;13.11;82.06
79663;BME280;69130;48.724;8.982;2023-05-20T05:51:13;96511.13;;;13.14;81.22
79663;BME280;69130;48.724;8.982;2023-05-20T05:53:39;96512.97;;;13.25;82.32
79663;BME280;69130;48.724;8.982;2023-05-20T05:56:04;96510.91;;;13.51;80.83
79663;BME280;69130;48.724;8.982;2023-05-20T05:58:30;96507.75;;;13.68;80.21
79663;BME280;69130;48.724;8.982;2023-05-20T06:00:56;96502.78;;;13.85;79.76
79663;BME280;69130;48.724;8.982;2023-05-20T06:03:22;96498.84;;;14.12;79.20
79663;BME280;69130;48.724;8.982;2023-05-20T06:05:48;96505.97;;;14.22;77.61
79663;BME280;69130;48.724;8.982;2023-05-20T06:08:13;96511.28;;;14.33;78.05
79663;BME280;69130;48.724;8.982;2023-05-20T06:10:38;96504.50;;;14.40;77.29
79663;BME280;69130;48.724;8.982;2023-05-20T06:13:04;96512.06;;;14.56;76.90
79663;BME280;69130;48.724;8.982;2023-05-20T06:15:29;96507.69;;;14.55;77.23
79663;BME280;69130;48.724;8.982;2023-05-20T06:17:54;96518.13;;;14.47;76.40
79663;BME280;69130;48.724;8.982;2023-05-20T06:20:20;96506.81;;;14.34;76.76
79663;BME280;69130;48.724;8.982;2023-05-20T06:22:45;96511.84;;;14.48;77.23
79663;BME280;69130;48.724;8.982;2023-05-20T06:25:11;96516.16;;;14.60;76.37
79663;BME280;69130;48.724;8.982;2023-05-20T06:27:36;96503.72;;;14.70;76.77
79663;BME280;69130;48.724;8.982;2023-05-20T06:30:02;96503.91;;;14.89;75.50
79663;BME280;69130;48.724;8.982;2023-05-20T06:32:27;96497.50;;;15.22;73.86
79663;BME280;69130;48.724;8.982;2023-05-20T06:34:52;96498.25;;;15.33;74.32
79663;BME280;69130;48.724;8.982;2023-05-20T06:37:18;96500.88;;;15.24;73.38
79663;BME280;69130;48.724;8.982;2023-05-20T06:39:43;96496.66;;;15.21;74.32
79663;BME280;69130;48.724;8.982;2023-05-20T06:42:08;96488.47;;;15.64;73.49
79663;BME280;69130;48.724;8.982;2023-05-20T06:44:34;96487.31;;;15.57;72.84
79663;BME280;69130;48.724;8.982;2023-05-20T06:46:59;96491.47;;;15.70;73.21
79663;BME280;69130;48.724;8.982;2023-05-20T06:49:25;96486.16;;;15.80;71.21
79663;BME280;69130;48.724;8.982;2023-05-20T06:51:50;96485.66;;;15.65;71.75
79663;BME280;69130;48.724;8.982;2023-05-20T06:54:15;96487.66;;;15.73;71.19
79663;BME280;69130;48.724;8.982;2023-05-20T06:56:41;96490.84;;;16.07;71.28
79663;BME280;69130;48.724;8.982;2023-05-20T06:59:06;96490.06;;;16.35;70.50
79663;BME280;69130;48.724;8.982;2023-05-20T07:01:32;96474.50;;;16.69;70.66
79663;BME280;69130;48.724;8.982;2023-05-20T07:03:57;96479.41;;;17.58;66.89
79663;BME280;69130;48.724;8.982;2023-05-20T07:06:22;96474.06;;;17.85;64.18
79663;BME280;69130;48.724;8.982;2023-05-20T07:08:48;96460.97;;;17.45;64.94
79663;BME280;69130;48.724;8.982;2023-05-20T07:11:13;96460.84;;;17.83;64.27
79663;BME280;69130;48.724;8.982;2023-05-20T07:13:38;96467.72;;;18.30;62.05
79663;BME280;69130;48.724;8.982;2023-05-20T07:16:04;96470.66;;;18.55;62.12
79663;BME280;69130;48.724;8.982;2023-05-20T07:18:30;96463.47;;;18.55;62.43
79663;BME280;69130;48.724;8.982;2023-05-20T07:20:55;96461.78;;;18.09;63.23
79663;BME280;69130;48.724;8.982;2023-05-20T07:23:22;96461.88;;;18.17;63.16
79663;BME280;69130;48.724;8.982;2023-05-20T07:25:47;96462.38;;;18.30;61.19
79663;BME280;69130;48.724;8.982;2023-05-20T07:28:16;96456.28;;;20.10;57.42
79663;BME280;69130;48.724;8.982;2023-05-20T07:30:44;96454.91;;;20.47;54.11
79663;BME280;69130;48.724;8.982;2023-05-20T07:33:20;96457.53;;;20.23;56.21
79663;BME280;69130;48.724;8.982;2023-05-20T07:35:51;96455.88;;;19.88;57.86
79663;BME280;69130;48.724;8.982;2023-05-20T07:38:18;96451.59;;;21.26;56.32
79663;BME280;69130;48.724;8.982;2023-05-20T07:40:43;96462.97;;;21.60;52.32
79663;BME280;69130;48.724;8.982;2023-05-20T07:43:09;96451.06;;;21.46;52.95
79663;BME280;69130;48.724;8.982;2023-05-20T07:45:35;96453.56;;;20.43;54.93
79663;BME280;69130;48.724;8.982;2023-05-20T07:48:01;96446.03;;;20.71;55.77
79663;BME280;69130;48.724;8.982;2023-05-20T07:50:26;96438.78;;;20.87;53.58
79663;BME280;69130;48.724;8.982;2023-05-20T07:52:52;96434.59;;;20.61;53.50
79663;BME280;69130;48.724;8.982;2023-05-20T07:55:17;96442.78;;;22.11;52.29
79663;BME280;69130;48.724;8.982;2023-05-20T07:57:43;96436.72;;;23.67;46.85
79663;BME280;69130;48.724;8.982;2023-05-20T08:00:08;96432.97;;;24.27;43.46
79663;BME280;69130;48.724;8.982;2023-05-20T08:02:35;96436.59;;;23.61;45.06
79663;BME280;69130;48.724;8.982;2023-05-20T08:05:01;96434.66;;;23.40;46.15
79663;BME280;69130;48.724;8.982;2023-05-20T08:07:26;96443.66;;;22.87;46.26
79663;BME280;69130;48.724;8.982;2023-05-20T08:09:51;96434.31;;;22.98;47.17
79663;BME280;69130;48.724;8.982;2023-05-20T08:12:17;96426.47;;;22.88;47.91
79663;BME280;69130;48.724;8.982;2023-05-20T08:14:42;96435.34;;;22.43;47.70
79663;BME280;69130;48.724;8.982;2023-05-20T08:17:08;96449.28;;;21.07;51.14
79663;BME280;69130;48.724;8.982;2023-05-20T08:19:33;96441.59;;;20.30;53.97
79663;BME280;69130;48.724;8.982;2023-05-20T08:21:58;96443.94;;;19.91;55.63
79663;BME280;69130;48.724;8.982;2023-05-20T08:24:24;96445.06;;;19.72;56.59
79663;BME280;69130;48.724;8.982;2023-05-20T08:26:49;96454.84;;;19.30;58.23
79663;BME280;69130;48.724;8.982;2023-05-20T08:29:15;96456.28;;;18.56;59.08
79663;BME280;69130;48.724;8.982;2023-05-20T08:31:40;96464.56;;;18.45;60.72
79663;BME280;69130;48.724;8.982;2023-05-20T08:34:05;96458.94;;;17.93;60.63
79663;BME280;69130;48.724;8.982;2023-05-20T08:36:32;96465.56;;;17.62;62.88
79663;BME280;69130;48.724;8.982;2023-05-20T08:38:57;96455.34;;;17.38;63.50
79663;BME280;69130;48.724;8.982;2023-05-20T08:41:22;96463.25;;;17.50;63.68
79663;BME280;69130;48.724;8.982;2023-05-20T08:43:49;96462.75;;;17.64;63.45
79663;BME280;69130;48.724;8.982;2023-05-20T08:46:16;96462.50;;;17.84;63.29
79663;BME280;69130;48.724;8.982;2023-05-20T08:48:42;96463.66;;;18.26;62.52
79663;BME280;69130;48.724;8.982;2023-05-20T08:51:08;96462.56;;;18.64;61.64
79663;BME280;69130;48.724;8.982;2023-05-20T08:53:35;96458.94;;;18.91;60.20
79663;BME280;69130;48.724;8.982;2023-05-20T08:56:01;96459.38;;;18.86;59.92
79663;BME280;69130;48.724;8.982;2023-05-20T08:58:28;96453.75;;;18.54;60.72
79663;BME280;69130;48.724;8.982;2023-05-20T09:00:53;96447.22;;;18.57;60.63
79663;BME280;69130;48.724;8.982;2023-05-20T09:03:19;96450.06;;;18.73;61.20
79663;BME280;69130;48.724;8.982;2023-05-20T09:05:46;96443.19;;;20.97;57.08
79663;BME280;69130;48.724;8.982;2023-05-20T09:08:12;96443.06;;;21.85;51.57
79663;BME280;69130;48.724;8.982;2023-05-20T09:10:38;96440.28;;;21.54;51.99
79663;BME280;69130;48.724;8.982;2023-05-20T09:13:05;96433.22;;;21.45;51.31
79663;BME280;69130;48.724;8.982;2023-05-20T09:15:31;96443.03;;;21.22;52.29
79663;BME280;69130;48.724;8.982;2023-05-20T09:18:01;96445.38;;;20.93;53.33
79663;BME280;69130;48.724;8.982;2023-05-20T09:20:27;96436.38;;;20.36;54.25
79663;BME280;69130;48.724;8.982;2023-05-20T09:23:01;96440.31;;;20.58;54.41
79663;BME280;69130;48.724;8.982;2023-05-20T09:25:27;96434.91;;;21.54;51.76
79663;BME280;69130;48.724;8.982;2023-05-20T09:27:53;96439.75;;;21.59;50.56
79663;BME280;69130;48.724;8.982;2023-05-20T09:30:19;96437.50;;;21.70;52.31
79663;BME280;69130;48.724;8.982;2023-05-20T09:32:52;96435.78;;;21.23;52.37
79663;BME280;69130;48.724;8.982;2023-05-20T09:35:17;96435.09;;;20.56;53.61
79663;BME280;69130;48.724;8.982;2023-05-20T09:37:45;96435.09;;;20.88;53.67
79663;BME280;69130;48.724;8.982;2023-05-20T09:40:15;96422.00;;;20.77;52.91
79663;BME280;69130;48.724;8.982;2023-05-20T09:42:51;96420.16;;;20.54;53.43
79663;BME280;69130;48.724;8.982;2023-05-20T09:45:20;96428.22;;;20.54;54.24
79663;BME280;69130;48.724;8.982;2023-05-20T09:47:49;96426.88;;;21.14;53.14
79663;BME280;69130;48.724;8.982;2023-05-20T09:50:14;96426.69;;;20.92;52.93
79663;BME280;69130;48.724;8.982;2023-05-20T09:52:42;96435.69;;;22.71;51.56
79663;BME280;69130;48.724;8.982;2023-05-20T09:55:08;96419.16;;;23.49;47.36
79663;BME280;69130;48.724;8.982;2023-05-20T09:57:37;96427.09;;;23.13;47.37
79663;BME280;69130;48.724;8.982;2023-05-20T10:00:04;96426.34;;;22.82;47.41
79663;BME280;69130;48.724;8.982;2023-05-20T10:02:33;96421.78;;;22.60;47.68
79663;BME280;69130;48.724;8.982;2023-05-20T10:05:03;96412.03;;;21.97;49.16
79663;BME280;69130;48.724;8.982;2023-05-20T10:15:49;96397.38;;;22.98;45.59
79663;BME280;69130;48.724;8.982;2023-05-20T10:18:45;96399.53;;;23.55;46.22
79663;BME280;69130;48.724;8.982;2023-05-20T10:21:15;96408.19;;;25.01;43.74
79663;BME280;69130;48.724;8.982;2023-05-20T10:23:41;96400.38;;;26.56;40.84
79663;BME280;69130;48.724;8.982;2023-05-20T10:26:06;96391.69;;;26.87;38.40
79663;BME280;69130;48.724;8.982;2023-05-20T10:28:36;96409.28;;;26.97;37.36
79663;BME280;69130;48.724;8.982;2023-05-20T10:31:02;96402.16;;;27.09;37.47
79663;BME280;69130;48.724;8.982;2023-05-20T10:33:43;96398.09;;;25.71;39.18
79663;BME280;69130;48.724;8.982;2023-05-20T10:36:08;96407.75;;;26.15;40.53
79663;BME280;69130;48.724;8.982;2023-05-20T10:38:33;96397.94;;;25.45;38.43
79663;BME280;69130;48.724;8.982;2023-05-20T10:41:08;96395.72;;;25.34;41.38
79663;BME280;69130;48.724;8.982;2023-05-20T10:43:35;96399.88;;;24.46;41.82
79663;BME280;69130;48.724;8.982;2023-05-20T10:46:00;96391.13;;;23.79;45.05
79663;BME280;69130;48.724;8.982;2023-05-20T10:48:28;96395.59;;;23.05;44.41
79663;BME280;69130;48.724;8.982;2023-05-20T10:50:56;96399.88;;;22.63;47.34
79663;BME280;69130;48.724;8.982;2023-05-20T10:53:23;96385.78;;;23.27;46.13
79663;BME280;69130;48.724;8.982;2023-05-20T10:55:50;96387.13;;;22.94;45.94
79663;BME280;69130;48.724;8.982;2023-05-20T10:58:16;96385.91;;;22.59;46.64
79663;BME280;69130;48.724;8.982;2023-05-20T11:00:43;96375.06;;;22.82;47.96
79663;BME280;69130;48.724;8.982;2023-05-20T11:03:08;96370.16;;;23.81;46.01
79663;BME280;69130;48.724;8.982;2023-05-20T11:05:38;96371.31;;;23.57;46.05
79663;BME280;69130;48.724;8.982;2023-05-20T11:08:06;96372.59;;;23.32;45.24
79663;BME280;69130;48.724;8.982;2023-05-20T11:10:33;96370.81;;;22.87;46.54
79663;BME280;69130;48.724;8.982;2023-05-20T11:13:00;96368.16;;;23.02;47.46
79663;BME280;69130;48.724;8.982;2023-05-20T11:15:25;96355.00;;;23.51;46.50
79663;BME280;69130;48.724;8.982;2023-05-20T11:17:55;96369.34;;;24.31;45.76
79663;BME280;69130;48.724;8.982;2023-05-20T11:20:24;96359.44;;;23.87;45.10
79663;BME280;69130;48.724;8.982;2023-05-20T11:22:50;96351.28;;;24.02;46.41
79663;BME280;69130;48.724;8.982;2023-05-20T11:25:16;96349.28;;;24.25;46.09
79663;BME280;69130;48.724;8.982;2023-05-20T11:27:43;96349.63;;;24.01;44.99
79663;BME280;69130;48.724;8.982;2023-05-20T11:30:10;96338.56;;;23.23;45.96
79663;BME280;69130;48.724;8.982;2023-05-20T11:32:36;96345.72;;;22.87;47.84
79663;BME280;69130;48.724;8.982;2023-05-20T11:35:01;96350.91;;;23.03;48.39
79663;BME280;69130;48.724;8.982;2023-05-20T11:37:26;96348.34;;;22.72;48.38
79663;BME280;69130;48.724;8.982;2023-05-20T11:40:05;96338.66;;;22.63;47.94
79663;BME280;69130;48.724;8.982;2023-05-20T11:42:35;96340.00;;;22.36;47.62
79663;BME280;69130;48.724;8.982;2023-05-20T11:45:01;96345.81;;;22.48;48.21
79663;BME280;69130;48.724;8.982;2023-05-20T11:47:26;96348.09;;;22.36;49.04
79663;BME280;69130;48.724;8.982;2023-05-20T11:49:52;96347.13;;;22.52;48.39
79663;BME280;69130;48.724;8.982;2023-05-20T11:52:17;96354.75;;;22.48;49.76
79663;BME280;69130;48.724;8.982;2023-05-20T11:54:43;96341.66;;;22.68;47.80
79663;BME280;69130;48.724;8.982;2023-05-20T11:57:10;96338.63;;;22.86;46.92
79663;BME280;69130;48.724;8.982;2023-05-20T11:59:35;96326.78;;;23.53;45.38
79663;BME280;69130;48.724;8.982;2023-05-20T12:02:01;96329.44;;;23.09;47.98
79663;BME280;69130;48.724;8.982;2023-05-20T12:04:26;96318.75;;;23.16;45.34
79663;BME280;69130;48.724;8.982;2023-05-20T12:06:52;96322.66;;;23.28;47.25
79663;BME280;69130;48.724;8.982;2023-05-20T12:09:17;96316.78;;;23.24;46.37
79663;BME280;69130;48.724;8.982;2023-05-20T12:11:43;96316.91;;;23.96;46.87
79663;BME280;69130;48.724;8.982;2023-05-20T12:14:09;96325.38;;;24.07;44.79
79663;BME280;69130;48.724;8.982;2023-05-20T12:16:36;96325.91;;;24.17;43.78
79663;BME280;69130;48.724;8.982;2023-05-20T12:19:02;96319.75;;;24.87;42.59
79663;BME280;69130;48.724;8.982;2023-05-20T12:21:28;96318.41;;;25.66;40.37
79663;BME280;69130;48.724;8.982;2023-05-20T12:23:54;96313.91;;;25.79;41.96
79663;BME280;69130;48.724;8.982;2023-05-20T12:26:23;96309.06;;;26.16;39.87
79663;BME280;69130;48.724;8.982;2023-05-20T12:28:48;96302.44;;;26.64;39.92
79663;BME280;69130;48.724;8.982;2023-05-20T12:31:14;96305.59;;;26.61;40.67
79663;BME280;69130;48.724;8.982;2023-05-20T12:33:39;96311.56;;;25.08;41.36
79663;BME280;69130;48.724;8.982;2023-05-20T12:36:04;96314.84;;;24.34;42.68
79663;BME280;69130;48.724;8.982;2023-05-20T12:38:30;96313.03;;;24.19;42.95
79663;BME280;69130;48.724;8.982;2023-05-20T12:40:55;96307.25;;;25.14;39.90
79663;BME280;69130;48.724;8.982;2023-05-20T12:43:21;96299.41;;;26.07;40.66
79663;BME280;69130;48.724;8.982;2023-05-20T12:45:46;96307.31;;;26.88;40.27
79663;BME280;69130;48.724;8.982;2023-05-20T12:48:11;96304.59;;;26.88;38.99
79663;BME280;69130;48.724;8.982;2023-05-20T12:50:37;96305.34;;;26.43;38.58
79663;BME280;69130;48.724;8.982;2023-05-20T12:53:02;96304.91;;;26.20;39.33
79663;BME280;69130;48.724;8.982;2023-05-20T12:55:27;96300.00;;;25.21;40.12
79663;BME280;69130;48.724;8.982;2023-05-20T12:57:53;96285.59;;;24.65;42.20
79663;BME280;69130;48.724;8.982;2023-05-20T13:00:19;96296.50;;;25.27;42.33
79663;BME280;69130;48.724;8.982;2023-05-20T13:02:53;96288.31;;;24.86;40.17